Terminal Aerodrome Forecast
Issued by NWS

Home | Current Version | Previous Version | Text Only | Print | Product List | Glossary On
Versions: 1 2 3 4 5 6 7 8 9 10 11 12 13 14 15 16 17 18 19
625
FTUS43 KGRR 222340
TAFAZO
TAF
KAZO 222340Z 2300/2324 VRB03KT P6SM SKC
     FM231000 00000KT 2SM BR SKC
     FM231300 20005KT P6SM SCT050=

USA.gov is the U.S. government's official web portal to all federal, state and local government web resources and services.